sensor_id;sensor_type;location;lat;lon;timestamp;P1;durP1;ratioP1;P2;durP2;ratioP2
52530;SDS011;38441;52.894;6.040;2022-08-30T00:00:48;7.13;;;3.80;;
52530;SDS011;38441;52.894;6.040;2022-08-30T00:03:28;8.27;;;3.70;;
52530;SDS011;38441;52.894;6.040;2022-08-30T00:05:55;5.72;;;3.60;;
52530;SDS011;38441;52.894;6.040;2022-08-30T00:08:21;4.97;;;3.65;;
52530;SDS011;38441;52.894;6.040;2022-08-30T00:10:48;7.15;;;3.97;;
52530;SDS011;38441;52.894;6.040;2022-08-30T00:13:15;9.23;;;3.80;;
52530;SDS011;38441;52.894;6.040;2022-08-30T00:15:42;7.53;;;4.30;;
52530;SDS011;38441;52.894;6.040;2022-08-30T00:18:08;11.38;;;3.92;;
52530;SDS011;38441;52.894;6.040;2022-08-30T00:20:35;6.03;;;3.90;;
52530;SDS011;38441;52.894;6.040;2022-08-30T00:23:02;5.88;;;4.43;;
52530;SDS011;38441;52.894;6.040;2022-08-30T00:25:29;6.15;;;3.63;;
52530;SDS011;38441;52.894;6.040;2022-08-30T00:27:55;6.95;;;4.38;;
52530;SDS011;38441;52.894;6.040;2022-08-30T00:30:21;7.93;;;4.05;;
52530;SDS011;38441;52.894;6.040;2022-08-30T00:32:47;6.90;;;3.83;;
52530;SDS011;38441;52.894;6.040;2022-08-30T00:35:14;8.07;;;4.57;;
52530;SDS011;38441;52.894;6.040;2022-08-30T00:37:44;8.40;;;4.73;;
52530;SDS011;38441;52.894;6.040;2022-08-30T00:40:11;7.88;;;4.70;;
52530;SDS011;38441;52.894;6.040;2022-08-30T00:42:40;8.70;;;4.03;;
52530;SDS011;38441;52.894;6.040;2022-08-30T00:45:15;6.82;;;4.82;;
52530;SDS011;38441;52.894;6.040;2022-08-30T00:47:46;8.40;;;4.70;;
52530;SDS011;38441;52.894;6.040;2022-08-30T00:50:14;6.90;;;4.47;;
52530;SDS011;38441;52.894;6.040;2022-08-30T00:52:45;9.20;;;4.70;;
52530;SDS011;38441;52.894;6.040;2022-08-30T00:55:13;8.90;;;4.85;;
52530;SDS011;38441;52.894;6.040;2022-08-30T00:57:41;7.03;;;4.30;;
52530;SDS011;38441;52.894;6.040;2022-08-30T01:00:09;6.07;;;4.55;;
52530;SDS011;38441;52.894;6.040;2022-08-30T01:02:36;8.35;;;4.63;;
52530;SDS011;38441;52.894;6.040;2022-08-30T01:05:02;9.25;;;4.50;;
52530;SDS011;38441;52.894;6.040;2022-08-30T01:07:31;6.80;;;4.53;;
52530;SDS011;38441;52.894;6.040;2022-08-30T01:09:59;6.85;;;4.50;;
52530;SDS011;38441;52.894;6.040;2022-08-30T01:12:26;6.95;;;4.90;;
52530;SDS011;38441;52.894;6.040;2022-08-30T01:14:54;8.23;;;5.10;;
52530;SDS011;38441;52.894;6.040;2022-08-30T01:17:20;7.10;;;4.80;;
52530;SDS011;38441;52.894;6.040;2022-08-30T01:19:48;8.35;;;4.80;;
52530;SDS011;38441;52.894;6.040;2022-08-30T01:25:17;8.27;;;5.15;;
52530;SDS011;38441;52.894;6.040;2022-08-30T01:27:51;6.55;;;4.57;;
52530;SDS011;38441;52.894;6.040;2022-08-30T01:30:20;7.78;;;5.13;;
52530;SDS011;38441;52.894;6.040;2022-08-30T01:32:48;6.95;;;5.03;;
52530;SDS011;38441;52.894;6.040;2022-08-30T01:35:17;8.45;;;4.88;;
52530;SDS011;38441;52.894;6.040;2022-08-30T01:37:44;6.72;;;4.47;;
52530;SDS011;38441;52.894;6.040;2022-08-30T01:40:12;7.70;;;4.70;;
52530;SDS011;38441;52.894;6.040;2022-08-30T01:42:45;8.65;;;5.15;;
52530;SDS011;38441;52.894;6.040;2022-08-30T01:45:11;7.22;;;5.07;;
52530;SDS011;38441;52.894;6.040;2022-08-30T01:47:37;8.13;;;4.85;;
52530;SDS011;38441;52.894;6.040;2022-08-30T01:50:05;7.38;;;4.43;;
52530;SDS011;38441;52.894;6.040;2022-08-30T01:52:32;7.00;;;4.30;;
52530;SDS011;38441;52.894;6.040;2022-08-30T01:54:58;7.03;;;4.55;;
52530;SDS011;38441;52.894;6.040;2022-08-30T01:57:24;6.63;;;4.05;;
52530;SDS011;38441;52.894;6.040;2022-08-30T01:59:54;6.22;;;4.47;;
52530;SDS011;38441;52.894;6.040;2022-08-30T02:02:21;8.88;;;4.55;;
52530;SDS011;38441;52.894;6.040;2022-08-30T02:04:50;6.00;;;4.43;;
52530;SDS011;38441;52.894;6.040;2022-08-30T02:07:16;6.25;;;4.13;;
52530;SDS011;38441;52.894;6.040;2022-08-30T02:09:43;8.05;;;4.63;;
52530;SDS011;38441;52.894;6.040;2022-08-30T02:12:09;8.50;;;3.90;;
52530;SDS011;38441;52.894;6.040;2022-08-30T02:14:35;5.53;;;3.95;;
52530;SDS011;38441;52.894;6.040;2022-08-30T02:17:03;7.53;;;4.63;;
52530;SDS011;38441;52.894;6.040;2022-08-30T02:19:30;6.75;;;4.60;;
52530;SDS011;38441;52.894;6.040;2022-08-30T02:21:56;6.15;;;4.18;;
52530;SDS011;38441;52.894;6.040;2022-08-30T02:24:22;7.20;;;4.90;;
52530;SDS011;38441;52.894;6.040;2022-08-30T02:26:48;5.50;;;3.83;;
52530;SDS011;38441;52.894;6.040;2022-08-30T02:29:16;5.85;;;4.25;;
52530;SDS011;38441;52.894;6.040;2022-08-30T02:31:42;7.05;;;4.43;;
52530;SDS011;38441;52.894;6.040;2022-08-30T02:34:08;7.28;;;4.88;;
52530;SDS011;38441;52.894;6.040;2022-08-30T02:36:34;7.80;;;4.70;;
52530;SDS011;38441;52.894;6.040;2022-08-30T02:39:01;7.57;;;4.80;;
52530;SDS011;38441;52.894;6.040;2022-08-30T02:41:27;7.20;;;4.90;;
52530;SDS011;38441;52.894;6.040;2022-08-30T02:43:53;9.25;;;4.95;;
52530;SDS011;38441;52.894;6.040;2022-08-30T02:46:22;9.55;;;4.82;;
52530;SDS011;38441;52.894;6.040;2022-08-30T02:51:51;6.95;;;4.97;;
52530;SDS011;38441;52.894;6.040;2022-08-30T02:54:17;9.13;;;4.80;;
52530;SDS011;38441;52.894;6.040;2022-08-30T02:57:01;6.80;;;5.88;;
52530;SDS011;38441;52.894;6.040;2022-08-30T02:59:38;10.38;;;5.35;;
52530;SDS011;38441;52.894;6.040;2022-08-30T03:02:15;9.48;;;5.22;;
52530;SDS011;38441;52.894;6.040;2022-08-30T03:04:50;7.40;;;5.05;;
52530;SDS011;38441;52.894;6.040;2022-08-30T03:07:16;6.68;;;4.97;;
52530;SDS011;38441;52.894;6.040;2022-08-30T03:09:43;8.38;;;4.47;;
52530;SDS011;38441;52.894;6.040;2022-08-30T03:12:09;8.85;;;4.82;;
52530;SDS011;38441;52.894;6.040;2022-08-30T03:14:36;9.75;;;5.63;;
52530;SDS011;38441;52.894;6.040;2022-08-30T03:17:03;8.43;;;5.20;;
52530;SDS011;38441;52.894;6.040;2022-08-30T03:19:31;7.18;;;5.18;;
52530;SDS011;38441;52.894;6.040;2022-08-30T03:21:57;7.85;;;4.93;;
52530;SDS011;38441;52.894;6.040;2022-08-30T03:24:23;7.05;;;5.57;;
52530;SDS011;38441;52.894;6.040;2022-08-30T03:26:50;7.88;;;5.35;;
52530;SDS011;38441;52.894;6.040;2022-08-30T03:29:16;6.70;;;5.03;;
52530;SDS011;38441;52.894;6.040;2022-08-30T03:31:42;8.40;;;4.80;;
52530;SDS011;38441;52.894;6.040;2022-08-30T03:34:08;8.45;;;4.60;;
52530;SDS011;38441;52.894;6.040;2022-08-30T03:36:35;7.70;;;4.88;;
52530;SDS011;38441;52.894;6.040;2022-08-30T03:39:03;6.85;;;4.70;;
52530;SDS011;38441;52.894;6.040;2022-08-30T03:41:29;6.18;;;4.90;;
52530;SDS011;38441;52.894;6.040;2022-08-30T03:43:56;8.00;;;4.65;;
52530;SDS011;38441;52.894;6.040;2022-08-30T03:46:22;7.88;;;4.40;;
52530;SDS011;38441;52.894;6.040;2022-08-30T03:48:48;6.18;;;4.57;;
52530;SDS011;38441;52.894;6.040;2022-08-30T03:51:16;7.30;;;4.65;;
52530;SDS011;38441;52.894;6.040;2022-08-30T03:53:42;6.78;;;4.78;;
52530;SDS011;38441;52.894;6.040;2022-08-30T03:56:08;5.60;;;4.43;;
52530;SDS011;38441;52.894;6.040;2022-08-30T03:58:34;7.75;;;4.63;;
52530;SDS011;38441;52.894;6.040;2022-08-30T04:01:00;7.60;;;4.63;;
52530;SDS011;38441;52.894;6.040;2022-08-30T04:03:26;7.10;;;4.65;;
52530;SDS011;38441;52.894;6.040;2022-08-30T04:05:53;7.97;;;4.78;;
52530;SDS011;38441;52.894;6.040;2022-08-30T04:08:20;7.10;;;4.72;;
52530;SDS011;38441;52.894;6.040;2022-08-30T04:10:46;7.32;;;4.68;;
52530;SDS011;38441;52.894;6.040;2022-08-30T04:13:13;7.50;;;4.50;;
52530;SDS011;38441;52.894;6.040;2022-08-30T04:15:39;7.22;;;5.03;;
52530;SDS011;38441;52.894;6.040;2022-08-30T04:18:05;7.40;;;4.63;;
52530;SDS011;38441;52.894;6.040;2022-08-30T04:20:31;10.63;;;4.88;;
52530;SDS011;38441;52.894;6.040;2022-08-30T04:22:58;5.57;;;3.85;;
52530;SDS011;38441;52.894;6.040;2022-08-30T04:25:24;6.53;;;4.40;;
52530;SDS011;38441;52.894;6.040;2022-08-30T04:27:50;6.40;;;4.30;;
52530;SDS011;38441;52.894;6.040;2022-08-30T04:30:16;6.32;;;4.90;;
52530;SDS011;38441;52.894;6.040;2022-08-30T04:32:43;6.43;;;4.55;;
52530;SDS011;38441;52.894;6.040;2022-08-30T04:35:09;6.45;;;4.38;;
52530;SDS011;38441;52.894;6.040;2022-08-30T04:37:36;5.82;;;4.07;;
52530;SDS011;38441;52.894;6.040;2022-08-30T04:40:02;8.02;;;4.30;;
52530;SDS011;38441;52.894;6.040;2022-08-30T04:42:30;6.15;;;3.80;;
52530;SDS011;38441;52.894;6.040;2022-08-30T04:45:00;6.60;;;4.47;;
52530;SDS011;38441;52.894;6.040;2022-08-30T04:47:32;5.95;;;4.30;;
52530;SDS011;38441;52.894;6.040;2022-08-30T04:50:06;7.65;;;4.65;;
52530;SDS011;38441;52.894;6.040;2022-08-30T04:52:32;7.90;;;4.35;;
52530;SDS011;38441;52.894;6.040;2022-08-30T04:54:58;7.57;;;4.95;;
52530;SDS011;38441;52.894;6.040;2022-08-30T04:57:25;6.22;;;4.35;;
52530;SDS011;38441;52.894;6.040;2022-08-30T04:59:58;7.10;;;4.25;;
52530;SDS011;38441;52.894;6.040;2022-08-30T05:02:27;7.75;;;4.60;;
52530;SDS011;38441;52.894;6.040;2022-08-30T05:04:52;5.95;;;4.00;;
52530;SDS011;38441;52.894;6.040;2022-08-30T05:07:37;6.05;;;3.50;;
52530;SDS011;38441;52.894;6.040;2022-08-30T05:10:03;5.82;;;3.85;;
52530;SDS011;38441;52.894;6.040;2022-08-30T05:12:30;6.97;;;4.28;;
52530;SDS011;38441;52.894;6.040;2022-08-30T05:14:58;9.57;;;4.55;;
52530;SDS011;38441;52.894;6.040;2022-08-30T05:17:24;6.68;;;4.20;;
52530;SDS011;38441;52.894;6.040;2022-08-30T05:19:50;6.65;;;4.55;;
52530;SDS011;38441;52.894;6.040;2022-08-30T05:22:16;5.70;;;3.97;;
52530;SDS011;38441;52.894;6.040;2022-08-30T05:24:42;5.68;;;4.32;;
52530;SDS011;38441;52.894;6.040;2022-08-30T05:27:08;7.95;;;5.30;;
52530;SDS011;38441;52.894;6.040;2022-08-30T05:29:35;7.65;;;4.65;;
52530;SDS011;38441;52.894;6.040;2022-08-30T05:32:01;8.15;;;4.57;;
52530;SDS011;38441;52.894;6.040;2022-08-30T05:34:30;7.60;;;4.53;;
52530;SDS011;38441;52.894;6.040;2022-08-30T05:36:56;5.90;;;4.72;;
52530;SDS011;38441;52.894;6.040;2022-08-30T05:39:22;6.88;;;4.55;;
52530;SDS011;38441;52.894;6.040;2022-08-30T05:41:48;6.28;;;4.72;;
52530;SDS011;38441;52.894;6.040;2022-08-30T05:44:14;6.28;;;4.60;;
52530;SDS011;38441;52.894;6.040;2022-08-30T05:46:40;7.78;;;4.70;;
52530;SDS011;38441;52.894;6.040;2022-08-30T05:49:10;8.95;;;4.78;;
52530;SDS011;38441;52.894;6.040;2022-08-30T05:51:36;6.40;;;5.22;;
52530;SDS011;38441;52.894;6.040;2022-08-30T05:54:02;6.95;;;4.22;;
52530;SDS011;38441;52.894;6.040;2022-08-30T05:56:31;8.30;;;5.28;;
52530;SDS011;38441;52.894;6.040;2022-08-30T05:58:59;7.20;;;5.20;;
52530;SDS011;38441;52.894;6.040;2022-08-30T06:03:51;9.27;;;5.18;;
52530;SDS011;38441;52.894;6.040;2022-08-30T06:06:18;7.90;;;5.05;;
52530;SDS011;38441;52.894;6.040;2022-08-30T06:08:44;14.60;;;5.22;;
52530;SDS011;38441;52.894;6.040;2022-08-30T06:11:13;9.77;;;5.63;;
52530;SDS011;38441;52.894;6.040;2022-08-30T06:13:41;11.90;;;5.38;;
52530;SDS011;38441;52.894;6.040;2022-08-30T06:16:09;7.93;;;4.75;;
52530;SDS011;38441;52.894;6.040;2022-08-30T06:18:35;6.22;;;4.97;;
52530;SDS011;38441;52.894;6.040;2022-08-30T06:21:01;7.03;;;4.82;;
52530;SDS011;38441;52.894;6.040;2022-08-30T06:23:28;7.07;;;5.25;;
52530;SDS011;38441;52.894;6.040;2022-08-30T06:25:54;10.23;;;5.00;;
52530;SDS011;38441;52.894;6.040;2022-08-30T06:28:20;8.18;;;5.55;;
52530;SDS011;38441;52.894;6.040;2022-08-30T06:30:47;9.52;;;5.05;;
52530;SDS011;38441;52.894;6.040;2022-08-30T06:33:13;7.13;;;4.53;;
52530;SDS011;38441;52.894;6.040;2022-08-30T06:35:39;6.97;;;4.57;;
52530;SDS011;38441;52.894;6.040;2022-08-30T06:38:05;7.50;;;4.68;;
52530;SDS011;38441;52.894;6.040;2022-08-30T09:05:28;4.22;;;1.00;;
52530;SDS011;38441;52.894;6.040;2022-08-30T09:08:01;3.20;;;0.80;;
52530;SDS011;38441;52.894;6.040;2022-08-30T09:10:31;2.58;;;0.77;;
52530;SDS011;38441;52.894;6.040;2022-08-30T09:12:58;3.13;;;1.17;;
52530;SDS011;38441;52.894;6.040;2022-08-30T09:15:28;1.55;;;0.75;;
52530;SDS011;38441;52.894;6.040;2022-08-30T09:20:34;5.07;;;0.80;;
52530;SDS011;38441;52.894;6.040;2022-08-30T09:25:57;2.67;;;0.90;;
52530;SDS011;38441;52.894;6.040;2022-08-30T09:28:42;3.80;;;0.90;;
52530;SDS011;38441;52.894;6.040;2022-08-30T09:31:21;2.70;;;1.00;;
52530;SDS011;38441;52.894;6.040;2022-08-30T09:34:05;2.30;;;1.00;;
52530;SDS011;38441;52.894;6.040;2022-08-30T09:36:48;2.83;;;1.00;;
52530;SDS011;38441;52.894;6.040;2022-08-30T09:39:25;6.22;;;0.82;;
52530;SDS011;38441;52.894;6.040;2022-08-30T09:41:52;3.50;;;1.02;;
52530;SDS011;38441;52.894;6.040;2022-08-30T09:44:19;4.22;;;1.00;;
52530;SDS011;38441;52.894;6.040;2022-08-30T09:46:56;2.00;;;0.95;;
52530;SDS011;38441;52.894;6.040;2022-08-30T09:49:27;5.68;;;0.90;;
52530;SDS011;38441;52.894;6.040;2022-08-30T09:58:19;2.30;;;0.77;;
52530;SDS011;38441;52.894;6.040;2022-08-30T10:01:13;3.65;;;0.85;;
52530;SDS011;38441;52.894;6.040;2022-08-30T10:06:31;4.32;;;0.80;;
52530;SDS011;38441;52.894;6.040;2022-08-30T10:09:05;2.35;;;1.10;;
52530;SDS011;38441;52.894;6.040;2022-08-30T10:14:30;3.55;;;0.77;;
52530;SDS011;38441;52.894;6.040;2022-08-30T10:17:15;2.28;;;0.70;;
52530;SDS011;38441;52.894;6.040;2022-08-30T10:19:59;2.28;;;0.77;;
52530;SDS011;38441;52.894;6.040;2022-08-30T10:25:07;2.65;;;0.55;;
52530;SDS011;38441;52.894;6.040;2022-08-30T10:27:49;1.67;;;0.60;;
52530;SDS011;38441;52.894;6.040;2022-08-30T10:30:21;2.13;;;0.65;;
52530;SDS011;38441;52.894;6.040;2022-08-30T10:32:50;2.80;;;0.73;;
52530;SDS011;38441;52.894;6.040;2022-08-30T10:35:47;3.20;;;0.68;;
52530;SDS011;38441;52.894;6.040;2022-08-30T10:38:34;2.90;;;0.80;;
52530;SDS011;38441;52.894;6.040;2022-08-30T10:43:53;1.60;;;0.60;;
52530;SDS011;38441;52.894;6.040;2022-08-30T10:46:29;2.92;;;0.70;;
52530;SDS011;38441;52.894;6.040;2022-08-30T10:49:04;2.95;;;0.70;;
52530;SDS011;38441;52.894;6.040;2022-08-30T10:51:39;1.70;;;0.70;;
52530;SDS011;38441;52.894;6.040;2022-08-30T10:56:58;2.35;;;0.77;;
52530;SDS011;38441;52.894;6.040;2022-08-30T10:59:33;1.33;;;0.47;;
52530;SDS011;38441;52.894;6.040;2022-08-30T11:02:15;6.55;;;0.88;;
52530;SDS011;38441;52.894;6.040;2022-08-30T11:05:02;21.50;;;1.35;;
52530;SDS011;38441;52.894;6.040;2022-08-30T11:07:44;4.05;;;0.65;;
52530;SDS011;38441;52.894;6.040;2022-08-30T11:13:30;2.50;;;0.73;;
52530;SDS011;38441;52.894;6.040;2022-08-30T12:46:59;1.50;;;0.60;;
52530;SDS011;38441;52.894;6.040;2022-08-30T12:49:29;4.93;;;0.80;;
52530;SDS011;38441;52.894;6.040;2022-08-30T12:52:16;7.25;;;0.90;;
52530;SDS011;38441;52.894;6.040;2022-08-30T12:55:09;2.05;;;0.60;;
52530;SDS011;38441;52.894;6.040;2022-08-30T13:02:54;2.72;;;0.57;;
52530;SDS011;38441;52.894;6.040;2022-08-30T13:08:17;1.13;;;0.40;;
52530;SDS011;38441;52.894;6.040;2022-08-30T13:10:52;8.00;;;1.20;;
52530;SDS011;38441;52.894;6.040;2022-08-30T13:13:29;2.05;;;0.70;;
52530;SDS011;38441;52.894;6.040;2022-08-30T13:18:35;16.85;;;1.40;;
52530;SDS011;38441;52.894;6.040;2022-08-30T13:21:11;3.20;;;0.95;;
52530;SDS011;38441;52.894;6.040;2022-08-30T13:23:58;2.55;;;0.60;;
52530;SDS011;38441;52.894;6.040;2022-08-30T13:26:26;1.27;;;0.40;;
52530;SDS011;38441;52.894;6.040;2022-08-30T13:28:58;6.90;;;0.75;;
52530;SDS011;38441;52.894;6.040;2022-08-30T13:33:52;3.60;;;0.60;;
52530;SDS011;38441;52.894;6.040;2022-08-30T13:36:23;1.60;;;0.60;;
52530;SDS011;38441;52.894;6.040;2022-08-30T13:38:53;2.35;;;0.75;;
52530;SDS011;38441;52.894;6.040;2022-08-30T13:41:46;3.45;;;0.95;;
52530;SDS011;38441;52.894;6.040;2022-08-30T13:44:12;1.38;;;0.60;;
52530;SDS011;38441;52.894;6.040;2022-08-30T13:46:37;1.95;;;0.77;;
52530;SDS011;38441;52.894;6.040;2022-08-30T13:49:05;1.70;;;0.45;;
52530;SDS011;38441;52.894;6.040;2022-08-30T13:51:36;2.92;;;0.70;;
52530;SDS011;38441;52.894;6.040;2022-08-30T13:54:02;1.90;;;0.55;;
52530;SDS011;38441;52.894;6.040;2022-08-30T13:56:29;6.35;;;1.00;;
52530;SDS011;38441;52.894;6.040;2022-08-30T13:58:59;5.00;;;0.77;;
52530;SDS011;38441;52.894;6.040;2022-08-30T14:01:26;4.30;;;0.68;;
52530;SDS011;38441;52.894;6.040;2022-08-30T14:03:52;1.83;;;0.60;;
52530;SDS011;38441;52.894;6.040;2022-08-30T14:06:19;1.40;;;0.50;;
52530;SDS011;38441;52.894;6.040;2022-08-30T14:08:46;2.22;;;0.45;;
52530;SDS011;38441;52.894;6.040;2022-08-30T14:11:13;2.70;;;0.60;;
52530;SDS011;38441;52.894;6.040;2022-08-30T14:13:42;3.38;;;0.60;;
52530;SDS011;38441;52.894;6.040;2022-08-30T14:16:07;2.88;;;0.60;;
52530;SDS011;38441;52.894;6.040;2022-08-30T14:18:33;2.58;;;0.50;;
52530;SDS011;38441;52.894;6.040;2022-08-30T14:20:59;3.15;;;0.50;;
52530;SDS011;38441;52.894;6.040;2022-08-30T14:23:25;1.52;;;0.40;;
52530;SDS011;38441;52.894;6.040;2022-08-30T14:25:52;1.63;;;0.52;;
52530;SDS011;38441;52.894;6.040;2022-08-30T14:28:18;2.67;;;0.60;;
52530;SDS011;38441;52.894;6.040;2022-08-30T14:30:44;3.88;;;0.68;;
52530;SDS011;38441;52.894;6.040;2022-08-30T14:33:10;2.45;;;0.57;;
52530;SDS011;38441;52.894;6.040;2022-08-30T14:35:35;0.50;;;0.30;;
52530;SDS011;38441;52.894;6.040;2022-08-30T14:38:01;1.70;;;0.60;;
52530;SDS011;38441;52.894;6.040;2022-08-30T14:40:27;2.00;;;0.60;;
52530;SDS011;38441;52.894;6.040;2022-08-30T14:42:53;1.65;;;0.63;;
52530;SDS011;38441;52.894;6.040;2022-08-30T14:45:19;2.30;;;0.40;;
52530;SDS011;38441;52.894;6.040;2022-08-30T14:47:44;1.38;;;0.40;;
52530;SDS011;38441;52.894;6.040;2022-08-30T14:50:10;2.00;;;0.60;;
52530;SDS011;38441;52.894;6.040;2022-08-30T14:52:36;1.48;;;0.60;;
52530;SDS011;38441;52.894;6.040;2022-08-30T14:55:03;2.58;;;0.70;;
52530;SDS011;38441;52.894;6.040;2022-08-30T14:57:33;3.10;;;0.60;;
52530;SDS011;38441;52.894;6.040;2022-08-30T14:59:58;1.55;;;0.45;;
52530;SDS011;38441;52.894;6.040;2022-08-30T15:02:24;2.67;;;0.73;;
52530;SDS011;38441;52.894;6.040;2022-08-30T15:04:49;3.17;;;0.70;;
52530;SDS011;38441;52.894;6.040;2022-08-30T15:07:15;1.58;;;0.57;;
52530;SDS011;38441;52.894;6.040;2022-08-30T15:09:41;1.02;;;0.40;;
52530;SDS011;38441;52.894;6.040;2022-08-30T15:12:07;2.63;;;0.50;;
52530;SDS011;38441;52.894;6.040;2022-08-30T15:14:33;1.77;;;0.40;;
52530;SDS011;38441;52.894;6.040;2022-08-30T15:19:29;1.83;;;0.40;;
52530;SDS011;38441;52.894;6.040;2022-08-30T15:21:57;1.65;;;0.50;;
52530;SDS011;38441;52.894;6.040;2022-08-30T15:24:25;0.45;;;0.30;;
52530;SDS011;38441;52.894;6.040;2022-08-30T15:26:51;1.80;;;0.50;;
52530;SDS011;38441;52.894;6.040;2022-08-30T15:29:18;2.97;;;0.63;;
52530;SDS011;38441;52.894;6.040;2022-08-30T15:31:45;2.15;;;0.50;;
52530;SDS011;38441;52.894;6.040;2022-08-30T15:34:12;1.40;;;0.57;;
52530;SDS011;38441;52.894;6.040;2022-08-30T15:36:40;1.92;;;0.40;;
52530;SDS011;38441;52.894;6.040;2022-08-30T15:39:06;2.15;;;0.52;;
52530;SDS011;38441;52.894;6.040;2022-08-30T15:41:33;2.75;;;0.50;;
52530;SDS011;38441;52.894;6.040;2022-08-30T15:44:00;1.98;;;0.50;;
52530;SDS011;38441;52.894;6.040;2022-08-30T15:46:31;1.67;;;0.43;;
52530;SDS011;38441;52.894;6.040;2022-08-30T15:49:03;1.27;;;0.40;;
52530;SDS011;38441;52.894;6.040;2022-08-30T15:51:31;1.23;;;0.50;;
52530;SDS011;38441;52.894;6.040;2022-08-30T15:53:58;1.23;;;0.43;;
52530;SDS011;38441;52.894;6.040;2022-08-30T15:56:24;2.63;;;0.40;;
52530;SDS011;38441;52.894;6.040;2022-08-30T15:58:49;1.55;;;0.57;;
52530;SDS011;38441;52.894;6.040;2022-08-30T16:01:17;1.42;;;0.50;;
52530;SDS011;38441;52.894;6.040;2022-08-30T16:03:44;5.13;;;0.50;;
52530;SDS011;38441;52.894;6.040;2022-08-30T16:06:14;3.78;;;0.65;;
52530;SDS011;38441;52.894;6.040;2022-08-30T16:08:45;3.22;;;0.45;;
52530;SDS011;38441;52.894;6.040;2022-08-30T16:11:11;1.83;;;0.45;;
52530;SDS011;38441;52.894;6.040;2022-08-30T16:13:39;1.65;;;0.60;;
52530;SDS011;38441;52.894;6.040;2022-08-30T16:16:06;2.20;;;0.50;;
52530;SDS011;38441;52.894;6.040;2022-08-30T16:18:33;2.08;;;0.60;;
52530;SDS011;38441;52.894;6.040;2022-08-30T16:21:04;1.42;;;0.40;;
52530;SDS011;38441;52.894;6.040;2022-08-30T16:23:32;3.70;;;0.80;;
52530;SDS011;38441;52.894;6.040;2022-08-30T16:25:59;2.78;;;0.70;;
52530;SDS011;38441;52.894;6.040;2022-08-30T16:28:24;1.90;;;0.77;;
52530;SDS011;38441;52.894;6.040;2022-08-30T16:30:50;2.13;;;0.80;;
52530;SDS011;38441;52.894;6.040;2022-08-30T16:33:16;2.03;;;0.60;;
52530;SDS011;38441;52.894;6.040;2022-08-30T16:35:42;2.72;;;0.60;;
52530;SDS011;38441;52.894;6.040;2022-08-30T16:38:08;2.53;;;0.80;;
52530;SDS011;38441;52.894;6.040;2022-08-30T16:40:33;1.25;;;0.70;;
52530;SDS011;38441;52.894;6.040;2022-08-30T16:42:59;1.10;;;0.50;;
52530;SDS011;38441;52.894;6.040;2022-08-30T16:45:25;2.28;;;0.52;;
52530;SDS011;38441;52.894;6.040;2022-08-30T16:47:50;4.25;;;0.70;;
52530;SDS011;38441;52.894;6.040;2022-08-30T16:50:16;2.10;;;0.80;;
52530;SDS011;38441;52.894;6.040;2022-08-30T16:52:45;2.03;;;0.70;;
52530;SDS011;38441;52.894;6.040;2022-08-30T16:55:11;1.70;;;0.68;;
52530;SDS011;38441;52.894;6.040;2022-08-30T16:57:36;4.18;;;1.30;;
52530;SDS011;38441;52.894;6.040;2022-08-30T17:00:02;2.03;;;0.70;;
52530;SDS011;38441;52.894;6.040;2022-08-30T17:02:30;1.75;;;0.85;;
52530;SDS011;38441;52.894;6.040;2022-08-30T17:04:56;2.53;;;0.90;;
52530;SDS011;38441;52.894;6.040;2022-08-30T17:07:22;1.75;;;0.85;;
52530;SDS011;38441;52.894;6.040;2022-08-30T17:09:48;3.20;;;0.90;;
52530;SDS011;38441;52.894;6.040;2022-08-30T17:12:14;2.42;;;0.82;;
52530;SDS011;38441;52.894;6.040;2022-08-30T17:14:39;5.38;;;1.13;;
52530;SDS011;38441;52.894;6.040;2022-08-30T17:17:05;4.63;;;0.90;;
52530;SDS011;38441;52.894;6.040;2022-08-30T17:19:31;2.08;;;0.93;;
52530;SDS011;38441;52.894;6.040;2022-08-30T17:21:57;2.53;;;1.00;;
52530;SDS011;38441;52.894;6.040;2022-08-30T17:24:23;3.97;;;1.40;;
52530;SDS011;38441;52.894;6.040;2022-08-30T17:26:48;2.28;;;1.27;;
52530;SDS011;38441;52.894;6.040;2022-08-30T17:29:14;4.13;;;1.30;;
52530;SDS011;38441;52.894;6.040;2022-08-30T17:31:40;4.03;;;1.30;;
52530;SDS011;38441;52.894;6.040;2022-08-30T17:34:06;4.25;;;1.23;;
52530;SDS011;38441;52.894;6.040;2022-08-30T17:36:33;3.88;;;1.35;;
52530;SDS011;38441;52.894;6.040;2022-08-30T17:38:59;4.75;;;1.45;;
52530;SDS011;38441;52.894;6.040;2022-08-30T17:41:25;3.33;;;1.50;;
52530;SDS011;38441;52.894;6.040;2022-08-30T17:43:50;3.95;;;1.75;;
52530;SDS011;38441;52.894;6.040;2022-08-30T17:46:16;4.35;;;1.70;;
52530;SDS011;38441;52.894;6.040;2022-08-30T17:48:43;4.28;;;1.88;;
52530;SDS011;38441;52.894;6.040;2022-08-30T17:51:09;5.93;;;1.70;;
52530;SDS011;38441;52.894;6.040;2022-08-30T17:53:35;3.25;;;1.35;;
52530;SDS011;38441;52.894;6.040;2022-08-30T17:56:02;4.15;;;1.80;;
52530;SDS011;38441;52.894;6.040;2022-08-30T17:58:28;5.68;;;1.80;;
52530;SDS011;38441;52.894;6.040;2022-08-30T18:01:08;4.50;;;1.52;;
52530;SDS011;38441;52.894;6.040;2022-08-30T18:03:36;3.67;;;1.42;;
52530;SDS011;38441;52.894;6.040;2022-08-30T18:06:02;3.85;;;1.60;;
52530;SDS011;38441;52.894;6.040;2022-08-30T18:08:28;6.82;;;1.88;;
52530;SDS011;38441;52.894;6.040;2022-08-30T18:10:54;5.10;;;1.77;;
52530;SDS011;38441;52.894;6.040;2022-08-30T18:13:20;3.63;;;1.40;;
52530;SDS011;38441;52.894;6.040;2022-08-30T18:15:46;5.72;;;1.50;;
52530;SDS011;38441;52.894;6.040;2022-08-30T18:18:11;3.55;;;1.80;;
52530;SDS011;38441;52.894;6.040;2022-08-30T18:20:37;4.00;;;1.35;;
52530;SDS011;38441;52.894;6.040;2022-08-30T18:23:03;3.35;;;1.50;;
52530;SDS011;38441;52.894;6.040;2022-08-30T18:25:29;3.30;;;1.52;;
52530;SDS011;38441;52.894;6.040;2022-08-30T18:27:55;3.40;;;1.30;;
52530;SDS011;38441;52.894;6.040;2022-08-30T18:30:21;4.85;;;1.50;;
52530;SDS011;38441;52.894;6.040;2022-08-30T18:32:46;6.03;;;1.70;;
52530;SDS011;38441;52.894;6.040;2022-08-30T18:35:12;11.05;;;1.60;;
52530;SDS011;38441;52.894;6.040;2022-08-30T18:37:38;10.05;;;1.75;;
52530;SDS011;38441;52.894;6.040;2022-08-30T18:40:04;3.10;;;1.10;;
52530;SDS011;38441;52.894;6.040;2022-08-30T18:42:31;4.50;;;1.20;;
52530;SDS011;38441;52.894;6.040;2022-08-30T18:44:57;4.63;;;1.38;;
52530;SDS011;38441;52.894;6.040;2022-08-30T18:47:22;3.63;;;1.38;;
52530;SDS011;38441;52.894;6.040;2022-08-30T18:49:48;2.65;;;1.00;;
52530;SDS011;38441;52.894;6.040;2022-08-30T18:52:14;4.30;;;1.50;;
52530;SDS011;38441;52.894;6.040;2022-08-30T18:54:41;4.32;;;1.15;;
52530;SDS011;38441;52.894;6.040;2022-08-30T18:57:08;3.88;;;1.10;;
52530;SDS011;38441;52.894;6.040;2022-08-30T18:59:35;3.08;;;1.40;;
52530;SDS011;38441;52.894;6.040;2022-08-30T19:02:01;4.00;;;1.20;;
52530;SDS011;38441;52.894;6.040;2022-08-30T19:04:28;2.35;;;1.00;;
52530;SDS011;38441;52.894;6.040;2022-08-30T19:06:54;2.33;;;0.80;;
52530;SDS011;38441;52.894;6.040;2022-08-30T19:09:19;3.95;;;1.08;;
52530;SDS011;38441;52.894;6.040;2022-08-30T19:11:45;3.33;;;1.23;;
52530;SDS011;38441;52.894;6.040;2022-08-30T19:14:11;4.63;;;1.27;;
52530;SDS011;38441;52.894;6.040;2022-08-30T19:16:37;4.10;;;1.10;;
52530;SDS011;38441;52.894;6.040;2022-08-30T19:19:03;3.30;;;1.00;;
52530;SDS011;38441;52.894;6.040;2022-08-30T19:21:28;4.63;;;1.20;;
52530;SDS011;38441;52.894;6.040;2022-08-30T19:23:54;4.13;;;1.00;;
52530;SDS011;38441;52.894;6.040;2022-08-30T19:26:20;4.53;;;1.40;;
52530;SDS011;38441;52.894;6.040;2022-08-30T19:28:46;2.58;;;1.08;;
52530;SDS011;38441;52.894;6.040;2022-08-30T19:31:11;5.15;;;1.10;;
52530;SDS011;38441;52.894;6.040;2022-08-30T19:33:37;3.10;;;1.00;;
52530;SDS011;38441;52.894;6.040;2022-08-30T19:36:03;1.98;;;0.80;;
52530;SDS011;38441;52.894;6.040;2022-08-30T19:38:28;3.38;;;0.70;;
52530;SDS011;38441;52.894;6.040;2022-08-30T19:40:58;2.85;;;1.00;;
52530;SDS011;38441;52.894;6.040;2022-08-30T19:43:24;5.28;;;1.20;;